Time;durP1;ratioP1;P1;durP2;ratioP2;P2;SDS_P1;SDS_P2;PMS_P1;PMS_P2;Temp;Humidity;BMP_temperature;BMP_pressure;BME280_temperature;BME280_humidity;BME280_pressure;Samples;Min_cycle;Max_cycle;Signal;HPM_P1;HPM_P2
2022/07/29 00:00:17;;;;;;;2.08;1.02;;;20.90;78.30;;;;;;4037241;29;20043;-65
2022/07/29 00:02:18;;;;;;;2.17;0.90;;;20.80;78.80;;;;;;4046927;29;20037;-65
2022/07/29 00:04:19;;;;;;;3.47;1.25;;;20.70;78.70;;;;;;4041939;29;20089;-66
2022/07/29 00:06:20;;;;;;;1.48;1.00;;;20.70;79.50;;;;;;4040590;29;20060;-65
2022/07/29 00:08:21;;;;;;;1.38;1.10;;;20.60;79.80;;;;;;4044886;29;20404;-65
2022/07/29 00:10:21;;;;;;;2.22;0.85;;;20.40;80.00;;;;;;4039610;29;20033;-65
2022/07/29 00:12:24;;;;;;;1.70;0.85;;;20.40;80.70;;;;;;4044364;29;20123;-66
2022/07/29 00:14:25;;;;;;;1.35;1.00;;;20.40;80.40;;;;;;4043309;29;20033;-65
2022/07/29 00:16:25;;;;;;;3.65;1.27;;;20.40;80.60;;;;;;4041780;29;20131;-65
2022/07/29 00:18:26;;;;;;;1.98;1.00;;;20.30;80.60;;;;;;4045573;29;20037;-65
2022/07/29 00:20:27;;;;;;;3.65;1.38;;;20.30;81.60;;;;;;4040443;29;20037;-66
2022/07/29 00:22:27;;;;;;;3.05;1.27;;;20.30;81.00;;;;;;4044500;29;20174;-66
2022/07/29 00:24:28;;;;;;;2.38;0.98;;;20.20;81.00;;;;;;4045677;29;20185;-65
2022/07/29 00:26:31;;;;;;;2.90;1.00;;;20.20;81.10;;;;;;4048708;29;20394;-66
2022/07/29 00:28:32;;;;;;;4.75;1.38;;;20.20;81.20;;;;;;4045115;29;20489;-66
2022/07/29 00:30:32;;;;;;;1.60;0.95;;;20.20;81.50;;;;;;4036345;29;22833;-65
2022/07/29 00:32:33;;;;;;;2.97;1.33;;;20.20;82.00;;;;;;4047510;29;20118;-66
2022/07/29 00:36:53;;;;;;;8.43;1.10;;;20.10;81.30;;;;;;4040698;29;20056;-65
2022/07/29 00:38:54;;;;;;;2.42;1.10;;;20.00;81.50;;;;;;4040456;29;20033;-65
2022/07/29 00:40:54;;;;;;;2.25;0.95;;;20.00;81.90;;;;;;4039755;29;20029;-66
2022/07/29 00:42:55;;;;;;;2.15;0.98;;;20.00;81.90;;;;;;4039942;29;20041;-65
2022/07/29 00:44:55;;;;;;;2.45;1.30;;;20.00;82.00;;;;;;4042344;29;20053;-65
2022/07/29 00:46:56;;;;;;;2.47;1.05;;;20.00;82.00;;;;;;4038426;29;20043;-66
2022/07/29 00:48:57;;;;;;;1.58;0.90;;;20.00;82.00;;;;;;4044121;29;20056;-65
2022/07/29 00:50:59;;;;;;;2.97;1.00;;;20.00;82.10;;;;;;4030911;29;20116;-66
2022/07/29 00:53:00;;;;;;;1.60;1.00;;;20.00;82.10;;;;;;4039902;29;20041;-66
2022/07/29 00:55:07;;;;;;;3.42;0.98;;;19.90;82.10;;;;;;4040125;29;20032;-66
2022/07/29 00:57:07;;;;;;;3.78;0.90;;;20.00;82.50;;;;;;4040560;29;20104;-66
2022/07/29 00:59:08;;;;;;;3.20;1.08;;;20.00;82.60;;;;;;4046289;29;20107;-66
2022/07/29 01:01:09;;;;;;;1.23;0.75;;;20.10;82.50;;;;;;4046722;29;20480;-66
2022/07/29 01:03:09;;;;;;;1.45;0.60;;;20.00;81.90;;;;;;4041245;29;20401;-65
2022/07/29 01:05:12;;;;;;;1.10;0.88;;;20.10;82.00;;;;;;4039423;29;20388;-66
2022/07/29 01:07:12;;;;;;;;;;;20.20;81.60;;;;;;4041119;29;20029;-66
2022/07/29 01:09:14;;;;;;;2.88;1.15;;;20.20;81.20;;;;;;4044238;29;19915;-67
2022/07/29 01:11:16;;;;;;;3.03;1.15;;;20.10;81.00;;;;;;4042999;29;20033;-66
2022/07/29 01:13:19;;;;;;;3.03;1.38;;;20.10;80.90;;;;;;4041668;29;20650;-66
2022/07/29 01:15:21;;;;;;;3.30;1.42;;;20.00;81.50;;;;;;4044225;29;20032;-66
2022/07/29 01:17:26;;;;;;;3.00;1.13;;;20.00;82.30;;;;;;4043633;29;20044;-66
2022/07/29 01:19:57;;;;;;;1.65;1.05;;;20.00;82.40;;;;;;4039809;29;20452;-66
2022/07/29 01:22:09;;;;;;;2.33;1.23;;;20.00;82.80;;;;;;4041080;29;21858;-66
2022/07/29 01:24:10;;;;;;;4.03;0.80;;;19.90;82.60;;;;;;4039113;29;20040;-66
2022/07/29 01:26:16;;;;;;;1.75;0.90;;;20.00;83.30;;;;;;4030525;29;20035;-66
2022/07/29 01:28:29;;;;;;;6.20;0.90;;;20.00;83.40;;;;;;4042322;29;20044;-66
2022/07/29 01:30:32;;;;;;;3.28;0.65;;;20.00;82.60;;;;;;4036866;29;20041;-66
2022/07/29 01:32:36;;;;;;;2.53;1.10;;;20.10;82.70;;;;;;4048280;29;20043;-66
2022/07/29 01:34:52;;;;;;;3.15;0.98;;;20.10;81.90;;;;;;4039588;29;20112;-65
2022/07/29 01:37:04;;;;;;;1.80;0.80;;;20.20;82.20;;;;;;4039381;29;20124;-65
2022/07/29 01:39:11;;;;;;;1.65;0.85;;;20.20;82.60;;;;;;4044051;29;20173;-65
2022/07/29 01:41:17;;;;;;;1.73;0.98;;;20.30;84.50;;;;;;4040713;29;20033;-65
2022/07/29 01:43:26;;;;;;;3.83;0.93;;;20.30;83.10;;;;;;4042989;29;20089;-66
2022/07/29 01:45:36;;;;;;;1.58;0.60;;;20.40;84.70;;;;;;4033976;29;20040;-66
2022/07/29 01:47:43;;;;;;;3.58;0.90;;;20.50;83.30;;;;;;4039523;29;20052;-65
2022/07/29 01:49:50;;;;;;;1.23;0.80;;;20.60;86.80;;;;;;4040777;29;20047;-66
2022/07/29 01:52:07;;;;;;;1.58;0.70;;;20.60;84.30;;;;;;4035502;29;20552;-65
2022/07/29 01:54:14;;;;;;;3.30;1.13;;;20.70;84.00;;;;;;4035427;29;20041;-65
2022/07/29 01:56:18;;;;;;;1.10;0.88;;;20.70;84.70;;;;;;4035285;29;20032;-65
2022/07/29 01:58:20;;;;;;;2.28;0.93;;;20.70;84.70;;;;;;4038877;29;20040;-65
2022/07/29 02:00:23;;;;;;;2.03;1.10;;;20.80;85.80;;;;;;4041842;29;20033;-65
2022/07/29 02:02:25;;;;;;;2.08;1.10;;;20.80;84.00;;;;;;4039281;29;20466;-66
2022/07/29 02:04:28;;;;;;;2.75;0.98;;;20.90;88.40;;;;;;4042369;29;20179;-65
2022/07/29 02:06:31;;;;;;;3.60;0.85;;;20.90;85.40;;;;;;4038398;29;20044;-65
2022/07/29 02:08:33;;;;;;;4.05;1.13;;;20.80;83.40;;;;;;4042783;29;20041;-65
2022/07/29 02:10:35;;;;;;;2.28;1.00;;;20.70;84.10;;;;;;4042388;29;20536;-65
2022/07/29 02:12:37;;;;;;;5.80;1.67;;;20.70;84.20;;;;;;4038313;29;20063;-65
2022/07/29 02:14:44;;;;;;;6.68;1.30;;;20.50;83.70;;;;;;4036474;29;20033;-66
2022/07/29 02:16:47;;;;;;;1.70;0.88;;;20.40;87.60;;;;;;4034070;29;20120;-65
2022/07/29 02:18:52;;;;;;;4.03;1.23;;;20.30;85.70;;;;;;4041607;29;20056;-65
2022/07/29 02:20:55;;;;;;;3.65;0.98;;;20.20;89.50;;;;;;4037754;29;20090;-65
2022/07/29 02:22:58;;;;;;;3.95;1.23;;;20.20;88.40;;;;;;4039523;29;20147;-65
2022/07/29 02:24:59;;;;;;;2.13;1.10;;;20.10;90.60;;;;;;4045999;29;20515;-65
2022/07/29 02:27:02;;;;;;;3.47;0.93;;;20.20;90.50;;;;;;4041562;29;20127;-65
2022/07/29 02:29:02;;;;;;;2.63;1.00;;;20.10;88.60;;;;;;4043338;29;20041;-65
2022/07/29 02:31:04;;;;;;;3.33;1.25;;;20.10;90.30;;;;;;4042748;29;20043;-65
2022/07/29 02:33:06;;;;;;;5.72;1.13;;;20.10;90.90;;;;;;4041920;29;20047;-65
2022/07/29 02:35:08;;;;;;;1.92;1.00;;;20.10;90.10;;;;;;4045442;29;20035;-65
2022/07/29 02:37:11;;;;;;;4.88;1.10;;;20.10;90.70;;;;;;4043380;29;20033;-65
2022/07/29 02:39:14;;;;;;;3.83;1.15;;;20.00;90.90;;;;;;4029016;29;20028;-65
2022/07/29 02:41:37;;;;;;;3.17;1.20;;;20.00;90.80;;;;;;4039871;29;20041;-66
2022/07/29 02:43:40;;;;;;;1.75;0.80;;;19.80;90.30;;;;;;4031774;29;20570;-65
2022/07/29 02:45:42;;;;;;;2.85;0.73;;;19.80;90.40;;;;;;4041921;29;20552;-65
2022/07/29 02:47:46;;;;;;;3.22;1.10;;;19.80;91.40;;;;;;4046243;29;20048;-65
2022/07/29 02:49:52;;;;;;;2.85;0.90;;;19.70;91.10;;;;;;4041216;29;20040;-65
2022/07/29 02:51:58;;;;;;;2.58;0.90;;;19.70;91.80;;;;;;4044913;29;20041;-65
2022/07/29 02:54:05;;;;;;;3.67;1.40;;;19.70;91.80;;;;;;4042473;29;20044;-65
2022/07/29 02:59:26;;;;;;;2.15;1.02;;;19.60;91.80;;;;;;4008339;29;20057;-64
2022/07/29 03:01:32;;;;;;;5.13;1.67;;;19.50;92.00;;;;;;4019520;29;20065;-65
2022/07/29 03:03:37;;;;;;;2.72;1.20;;;19.50;93.60;;;;;;4020419;29;20037;-65
2022/07/29 03:05:38;;;;;;;3.05;1.30;;;19.50;91.50;;;;;;4026677;29;20518;-65
2022/07/29 03:07:40;;;;;;;1.75;0.85;;;19.50;93.00;;;;;;4027435;29;20041;-65
2022/07/29 03:09:42;;;;;;;2.20;0.93;;;19.50;92.40;;;;;;4020967;29;20037;-65
2022/07/29 03:11:44;;;;;;;2.72;1.00;;;19.50;92.50;;;;;;4026210;29;20037;-65
2022/07/29 03:13:45;;;;;;;1.77;1.02;;;19.50;92.10;;;;;;4032266;29;20051;-65
2022/07/29 03:15:46;;;;;;;1.85;0.73;;;19.50;92.80;;;;;;4019185;29;20063;-65
2022/07/29 03:17:48;;;;;;;3.38;1.35;;;19.60;93.50;;;;;;4024231;29;20045;-65
2022/07/29 03:19:49;;;;;;;2.75;1.25;;;19.60;90.20;;;;;;4020202;29;20033;-66
2022/07/29 03:21:50;;;;;;;3.58;1.13;;;19.40;88.30;;;;;;4031104;29;20037;-66
2022/07/29 03:23:51;;;;;;;3.90;1.40;;;19.40;91.20;;;;;;4023950;29;20125;-65
2022/07/29 03:25:52;;;;;;;2.25;1.20;;;19.50;92.20;;;;;;4023048;29;20038;-65
2022/07/29 03:27:53;;;;;;;6.30;1.25;;;19.50;92.60;;;;;;4023897;29;20037;-65
2022/07/29 03:29:53;;;;;;;2.63;0.95;;;19.60;92.00;;;;;;4035037;29;20048;-65
2022/07/29 03:31:54;;;;;;;2.92;1.00;;;19.60;91.70;;;;;;4041903;29;20079;-65
2022/07/29 03:33:55;;;;;;;2.88;0.80;;;19.70;91.40;;;;;;4039452;29;20049;-65
2022/07/29 03:35:55;;;;;;;1.52;0.77;;;19.70;89.50;;;;;;4040883;29;20059;-66
2022/07/29 03:37:56;;;;;;;1.20;0.73;;;19.70;91.10;;;;;;4041797;29;20041;-65
2022/07/29 03:39:58;;;;;;;2.50;0.82;;;19.70;89.10;;;;;;4041966;29;20124;-66
2022/07/29 03:42:00;;;;;;;3.85;0.90;;;19.80;88.70;;;;;;4045603;29;20036;-65
2022/07/29 03:44:02;;;;;;;1.25;0.70;;;19.80;87.90;;;;;;4049745;29;20044;-65
2022/07/29 03:46:06;;;;;;;1.60;0.90;;;19.70;87.70;;;;;;4040445;29;20056;-66
2022/07/29 03:48:09;;;;;;;1.35;1.00;;;19.70;90.00;;;;;;4041234;29;20052;-65
2022/07/29 03:50:13;;;;;;;1.70;0.88;;;19.50;88.50;;;;;;4049171;29;20032;-67
2022/07/29 03:52:13;;;;;;;1.77;0.90;;;19.40;88.50;;;;;;4045316;29;20120;-65
2022/07/29 03:54:14;;;;;;;2.70;0.85;;;19.40;90.20;;;;;;4039934;29;20029;-65
2022/07/29 03:56:20;;;;;;;2.72;0.75;;;19.50;91.10;;;;;;4039732;29;20507;-65
2022/07/29 03:58:21;;;;;;;2.30;1.30;;;19.50;92.20;;;;;;4040260;29;20523;-66
2022/07/29 04:00:23;;;;;;;2.80;1.20;;;19.70;93.80;;;;;;4040875;29;20072;-66
2022/07/29 04:02:25;;;;;;;2.90;1.08;;;19.70;93.80;;;;;;4038094;29;20048;-66
2022/07/29 04:04:26;;;;;;;1.83;1.00;;;19.70;94.00;;;;;;4040870;29;20136;-66
2022/07/29 04:06:26;;;;;;;0.82;0.68;;;19.80;94.30;;;;;;4043148;29;20037;-67
2022/07/29 04:08:27;;;;;;;0.80;0.68;;;19.90;94.40;;;;;;4049913;29;20144;-67
2022/07/29 04:10:28;;;;;;;2.08;0.90;;;19.90;94.70;;;;;;4035352;29;20096;-67
2022/07/29 04:12:28;;;;;;;1.52;0.93;;;20.00;95.20;;;;;;4037799;29;20125;-68
2022/07/29 04:14:30;;;;;;;1.65;1.13;;;20.00;95.60;;;;;;4044449;29;20452;-68
2022/07/29 04:16:31;;;;;;;2.25;0.75;;;20.00;94.00;;;;;;4034246;29;20049;-68
2022/07/29 04:18:32;;;;;;;1.92;0.85;;;19.80;95.40;;;;;;4040034;29;20057;-68
2022/07/29 04:20:32;;;;;;;4.03;1.23;;;19.80;96.10;;;;;;4038879;29;20033;-68
2022/07/29 04:22:34;;;;;;;2.08;1.00;;;19.90;97.00;;;;;;4040383;29;20044;-69
2022/07/29 04:24:34;;;;;;;2.72;1.20;;;19.90;97.30;;;;;;4038032;29;20167;-68
2022/07/29 04:26:35;;;;;;;3.67;1.20;;;19.90;98.20;;;;;;4035604;29;20517;-68
2022/07/29 04:28:35;;;;;;;2.47;0.95;;;19.90;99.00;;;;;;4044500;29;20041;-68
2022/07/29 04:30:37;;;;;;;2.75;1.27;;;20.00;98.00;;;;;;4048887;29;20511;-68
2022/07/29 04:32:37;;;;;;;3.08;0.98;;;19.70;97.30;;;;;;4037492;29;20039;-68
2022/07/29 04:34:38;;;;;;;1.98;1.00;;;19.60;97.50;;;;;;4041650;29;20040;-68
2022/07/29 04:36:38;;;;;;;2.35;1.00;;;19.50;97.70;;;;;;4041383;29;20113;-68
2022/07/29 04:38:39;;;;;;;2.72;1.30;;;19.50;98.70;;;;;;4037315;29;20073;-69
2022/07/29 04:46:34;;;;;;;4.28;1.02;;;19.20;99.90;;;;;;4036850;29;20044;-68
2022/07/29 04:48:35;;;;;;;2.33;1.23;;;19.20;99.90;;;;;;4037646;29;20070;-68
2022/07/29 04:50:39;;;;;;;5.03;1.75;;;19.20;99.90;;;;;;4044334;29;20036;-68
2022/07/29 04:52:39;;;;;;;2.83;1.13;;;19.20;99.90;;;;;;4039878;29;20462;-68
2022/07/29 04:54:40;;;;;;;6.18;1.70;;;19.20;99.90;;;;;;4036040;29;20059;-68
2022/07/29 04:56:41;;;;;;;6.82;1.63;;;19.10;99.90;;;;;;4039108;29;20048;-68
2022/07/29 04:58:42;;;;;;;3.17;1.25;;;19.00;99.90;;;;;;4042690;29;20036;-68
2022/07/29 05:00:42;;;;;;;1.40;1.00;;;19.00;99.90;;;;;;4047064;29;20056;-68
2022/07/29 05:02:43;;;;;;;1.75;1.02;;;18.90;99.90;;;;;;4045078;29;20123;-69
2022/07/29 05:04:43;;;;;;;2.38;1.20;;;18.90;99.90;;;;;;4042268;29;20049;-69
2022/07/29 05:06:44;;;;;;;4.13;1.60;;;18.80;99.90;;;;;;4040902;29;20041;-68
2022/07/29 05:08:44;;;;;;;2.75;1.10;;;18.70;99.90;;;;;;4039623;29;20092;-69
2022/07/29 05:10:46;;;;;;;3.28;1.20;;;18.60;99.90;;;;;;4027840;29;20040;-68
2022/07/29 05:12:46;;;;;;;4.88;1.77;;;18.60;99.90;;;;;;4034166;29;20041;-68
2022/07/29 05:14:47;;;;;;;4.47;1.20;;;18.60;99.90;;;;;;4033046;29;20041;-69
2022/07/29 05:16:50;;;;;;;2.00;1.23;;;18.60;99.90;;;;;;4033894;29;20072;-69
2022/07/29 05:18:51;;;;;;;3.35;1.50;;;18.60;99.90;;;;;;4053242;29;20036;-69
2022/07/29 05:20:52;;;;;;;2.65;1.58;;;18.50;99.90;;;;;;4027635;29;20096;-68
2022/07/29 05:22:52;;;;;;;3.33;1.63;;;18.40;99.90;;;;;;4031266;29;20060;-68
2022/07/29 05:24:53;;;;;;;1.77;1.17;;;18.40;99.90;;;;;;4040921;29;20036;-68
2022/07/29 05:26:53;;;;;;;4.72;1.67;;;18.40;99.90;;;;;;4038429;29;20033;-70
2022/07/29 05:28:54;;;;;;;1.67;1.27;;;18.30;99.90;;;;;;4031910;29;20044;-70
2022/07/29 05:30:55;;;;;;;3.08;1.63;;;18.30;99.90;;;;;;4039456;29;20040;-70
2022/07/29 05:32:56;;;;;;;2.22;1.17;;;18.30;99.90;;;;;;4036052;29;20041;-70
2022/07/29 05:34:57;;;;;;;3.17;1.33;;;18.40;99.90;;;;;;4040105;29;20067;-70
2022/07/29 05:36:57;;;;;;;3.08;1.63;;;18.40;99.90;;;;;;4035858;29;20036;-70
2022/07/29 05:38:58;;;;;;;2.35;1.45;;;18.40;99.90;;;;;;4039918;29;20127;-70
2022/07/29 05:40:59;;;;;;;9.68;1.40;;;18.50;99.90;;;;;;4040721;29;20052;-70
2022/07/29 05:43:00;;;;;;;4.10;1.42;;;18.50;99.90;;;;;;4036548;29;20048;-70
2022/07/29 05:45:01;;;;;;;3.60;1.67;;;18.80;99.90;;;;;;4035111;29;20053;-70
2022/07/29 05:47:02;;;;;;;3.42;1.60;;;;;;;;;;4030642;29;20500;-70
2022/07/29 05:49:03;;;;;;;2.65;1.48;;;;;;;;;;4033848;29;20045;-70
2022/07/29 05:51:04;;;;;;;2.72;1.40;;;;;;;;;;4034427;29;20032;-70
2022/07/29 05:53:05;;;;;;;4.13;2.13;;;;;;;;;;4040766;29;20037;-70
2022/07/29 05:55:07;;;;;;;4.55;1.98;;;;;;;;;;4034340;29;20041;-70
2022/07/29 05:57:08;;;;;;;4.72;1.90;;;;;;;;;;4040785;29;20484;-70
2022/07/29 05:59:09;;;;;;;2.45;1.50;;;;;;;;;;4041815;29;20051;-70
2022/07/29 06:01:10;;;;;;;13.50;9.68;;;;;;;;;;4038403;29;20049;-70
2022/07/29 06:03:11;;;;;;;228.73;74.53;;;;;;;;;;4035372;29;20095;-69
